createdAt,value
2018-11-14T00:01:21.475Z,100.00
2018-11-14T00:03:49.624Z,100.00
2018-11-14T00:06:17.825Z,100.00
2018-11-14T00:08:46.075Z,100.00
2018-11-14T00:11:14.379Z,100.00
2018-11-14T00:13:42.612Z,100.00
2018-11-14T00:16:10.755Z,100.00
2018-11-14T00:18:39.121Z,100.00
2018-11-14T00:21:07.251Z,100.00
2018-11-14T00:23:35.462Z,100.00
2018-11-14T00:26:04.027Z,100.00
2018-11-14T00:28:32.217Z,100.00
2018-11-14T00:31:00.377Z,100.00
2018-11-14T00:33:28.569Z,100.00
2018-11-14T00:35:56.736Z,100.00
2018-11-14T00:38:25.525Z,100.00
2018-11-14T00:40:53.739Z,100.00
2018-11-14T00:43:21.919Z,100.00
2018-11-14T00:45:50.210Z,100.00
2018-11-14T00:48:18.435Z,100.00
2018-11-14T00:50:46.591Z,100.00
2018-11-14T00:53:14.783Z,100.00
2018-11-14T00:55:43.584Z,100.00
2018-11-14T00:58:11.867Z,100.00
2018-11-14T01:00:40.188Z,100.00
2018-11-14T01:03:08.311Z,100.00
2018-11-14T01:05:36.476Z,100.00
2018-11-14T01:08:05.011Z,100.00
2018-11-14T01:10:33.345Z,100.00
2018-11-14T01:13:01.570Z,100.00
2018-11-14T01:15:29.659Z,100.00
2018-11-14T01:17:57.980Z,100.00
2018-11-14T01:20:26.252Z,100.00
2018-11-14T01:22:54.395Z,100.00
2018-11-14T01:25:22.529Z,100.00
2018-11-14T01:27:50.780Z,100.00
2018-11-14T01:30:20.999Z,100.00
2018-11-14T01:32:49.591Z,100.00
2018-11-14T01:35:18.183Z,100.00
2018-11-14T01:37:46.341Z,100.00
2018-11-14T01:40:17.887Z,100.00
2018-11-14T01:42:47.564Z,100.00
2018-11-14T01:45:15.811Z,100.00
2018-11-14T01:47:44.035Z,100.00
2018-11-14T01:50:12.336Z,100.00
2018-11-14T01:52:40.617Z,100.00
2018-11-14T01:55:11.572Z,100.00
2018-11-14T01:57:39.751Z,100.00
2018-11-14T02:00:10.172Z,100.00
2018-11-14T02:02:38.572Z,100.00
2018-11-14T02:05:07.623Z,100.00
2018-11-14T02:07:36.276Z,100.00
2018-11-14T02:10:05.823Z,100.00
2018-11-14T02:12:33.993Z,100.00
2018-11-14T02:15:02.234Z,100.00
2018-11-14T02:17:30.434Z,100.00
2018-11-14T02:19:58.579Z,100.00
2018-11-14T02:22:26.724Z,100.00
2018-11-14T02:24:54.920Z,100.00
2018-11-14T02:27:23.067Z,100.00
2018-11-14T02:29:51.239Z,100.00
2018-11-14T02:32:19.364Z,100.00
2018-11-14T02:34:47.558Z,100.00
2018-11-14T02:37:15.729Z,100.00
2018-11-14T02:39:43.901Z,100.00
2018-11-14T02:42:12.202Z,100.00
2018-11-14T02:44:40.363Z,100.00
2018-11-14T02:47:08.529Z,100.00
2018-11-14T02:49:36.900Z,100.00
2018-11-14T02:52:05.468Z,100.00
2018-11-14T02:54:33.692Z,100.00
2018-11-14T02:57:02.000Z,100.00
2018-11-14T02:59:30.172Z,100.00
2018-11-14T03:01:58.303Z,100.00
2018-11-14T03:04:26.485Z,100.00
2018-11-14T03:06:54.632Z,100.00
2018-11-14T03:09:23.283Z,100.00
2018-11-14T03:11:51.525Z,100.00
2018-11-14T03:14:19.708Z,100.00
2018-11-14T03:16:47.850Z,100.00
2018-11-14T03:19:16.029Z,100.00
2018-11-14T03:21:44.192Z,100.00
2018-11-14T03:24:12.361Z,100.00
2018-11-14T03:26:40.539Z,100.00
2018-11-14T03:29:08.830Z,100.00
2018-11-14T03:31:37.158Z,100.00
2018-11-14T03:34:05.692Z,100.00
2018-11-14T03:36:33.843Z,100.00
2018-11-14T03:39:01.993Z,100.00
2018-11-14T03:41:30.164Z,100.00
2018-11-14T03:43:58.443Z,100.00
2018-11-14T03:46:26.599Z,100.00
2018-11-14T03:48:54.845Z,100.00
2018-11-14T03:51:23.022Z,100.00
2018-11-14T03:53:51.231Z,100.00
2018-11-14T03:56:19.415Z,100.00
2018-11-14T03:58:47.687Z,100.00
2018-11-14T04:01:15.828Z,100.00
2018-11-14T04:03:44.008Z,100.00
2018-11-14T04:06:12.169Z,100.00
2018-11-14T04:08:40.312Z,100.00
2018-11-14T04:11:08.629Z,100.00
2018-11-14T04:13:36.805Z,100.00
2018-11-14T04:16:05.458Z,100.00
2018-11-14T04:18:33.896Z,100.00
2018-11-14T04:21:02.063Z,100.00
2018-11-14T04:23:30.246Z,100.00
2018-11-14T04:25:58.458Z,100.00
2018-11-14T04:28:27.116Z,100.00
2018-11-14T04:30:55.284Z,100.00
2018-11-14T04:33:23.532Z,100.00
2018-11-14T04:35:51.691Z,100.00
2018-11-14T04:38:19.813Z,100.00
2018-11-14T04:40:47.975Z,100.00
2018-11-14T04:43:16.128Z,100.00
2018-11-14T04:45:44.368Z,100.00
2018-11-14T04:48:12.601Z,100.00
2018-11-14T04:50:40.725Z,100.00
2018-11-14T04:53:08.858Z,100.00
2018-11-14T04:55:37.116Z,100.00
2018-11-14T04:58:05.424Z,100.00
2018-11-14T05:00:33.560Z,100.00
2018-11-14T05:03:01.740Z,100.00
2018-11-14T05:05:30.008Z,100.00
2018-11-14T05:07:58.185Z,100.00
2018-11-14T05:10:27.176Z,100.00
2018-11-14T05:12:55.476Z,100.00
2018-11-14T05:15:24.768Z,100.00
2018-11-14T05:17:53.439Z,100.00
2018-11-14T05:20:22.149Z,100.00
2018-11-14T05:22:50.740Z,100.00
2018-11-14T05:25:19.564Z,100.00
2018-11-14T05:27:47.763Z,100.00
2018-11-14T05:30:17.463Z,100.00
2018-11-14T05:32:46.758Z,100.00
2018-11-14T05:35:15.379Z,100.00
2018-11-14T05:37:43.859Z,100.00
2018-11-14T05:40:15.207Z,100.00
2018-11-14T05:42:43.947Z,100.00
2018-11-14T05:45:16.267Z,100.00
2018-11-14T05:47:44.716Z,100.00
2018-11-14T05:50:17.592Z,100.00
2018-11-14T05:52:45.781Z,100.00
2018-11-14T05:55:14.679Z,100.00
2018-11-14T05:57:42.900Z,100.00
2018-11-14T06:00:16.782Z,100.00
2018-11-14T06:02:45.680Z,100.00
2018-11-14T06:05:13.823Z,100.00
2018-11-14T06:07:42.029Z,100.00
2018-11-14T06:10:11.577Z,100.00
2018-11-14T06:12:40.370Z,100.00
2018-11-14T06:15:12.103Z,100.00
2018-11-14T06:17:40.754Z,100.00
2018-11-14T06:20:10.884Z,100.00
2018-11-14T06:22:39.111Z,100.00
2018-11-14T06:25:39.107Z,100.00
2018-11-14T06:28:08.610Z,100.00
2018-11-14T06:30:37.499Z,100.00
2018-11-14T06:33:06.929Z,100.00
2018-11-14T06:35:35.151Z,100.00
2018-11-14T06:38:03.351Z,100.00
2018-11-14T06:40:31.517Z,100.00
2018-11-14T06:42:59.726Z,100.00
2018-11-14T06:45:29.408Z,100.00
2018-11-14T06:47:59.430Z,100.00
2018-11-14T06:50:28.308Z,100.00
2018-11-14T06:52:57.952Z,100.00
2018-11-14T06:55:26.184Z,100.00
2018-11-14T06:57:54.319Z,100.00
2018-11-14T07:00:27.427Z,100.00
2018-11-14T07:02:56.229Z,100.00
2018-11-14T07:05:24.457Z,100.00
2018-11-14T07:07:52.552Z,100.00
2018-11-14T07:10:23.135Z,100.00
2018-11-14T07:12:51.283Z,100.00
2018-11-14T07:15:20.629Z,100.00
2018-11-14T07:17:49.704Z,100.00
2018-11-14T07:20:21.627Z,100.00
2018-11-14T07:22:49.817Z,100.00
2018-11-14T07:25:18.107Z,100.00
2018-11-14T07:27:46.688Z,100.00
2018-11-14T07:30:17.538Z,100.00
2018-11-14T07:32:47.151Z,100.00
2018-11-14T07:35:16.060Z,100.00
2018-11-14T07:38:53.971Z,100.00
2018-11-14T07:41:25.935Z,100.00
2018-11-14T07:43:54.247Z,100.00
2018-11-14T07:46:23.059Z,100.00
2018-11-14T07:48:51.816Z,100.00
2018-11-14T07:51:20.147Z,100.00
2018-11-14T07:53:48.359Z,100.00
2018-11-14T07:56:16.589Z,100.00
2018-11-14T07:58:44.752Z,100.00
2018-11-14T08:01:13.010Z,100.00
2018-11-14T08:03:41.319Z,100.00
2018-11-14T08:06:09.513Z,100.00
2018-11-14T08:08:37.690Z,100.00
2018-11-14T08:11:06.457Z,100.00
2018-11-14T08:13:35.453Z,100.00
2018-11-14T08:16:03.932Z,100.00
2018-11-14T08:18:32.147Z,100.00
2018-11-14T08:21:01.319Z,100.00
2018-11-14T08:23:30.511Z,100.00
2018-11-14T08:25:58.825Z,100.00
2018-11-14T08:28:26.956Z,100.00
2018-11-14T08:30:55.232Z,100.00
2018-11-14T08:33:23.411Z,100.00
2018-11-14T08:35:51.624Z,100.00
2018-11-14T08:38:19.903Z,100.00
2018-11-14T08:40:48.096Z,100.00
2018-11-14T08:43:16.272Z,100.00
2018-11-14T08:45:44.791Z,100.00
2018-11-14T08:48:12.954Z,100.00
2018-11-14T08:50:41.465Z,100.00
2018-11-14T08:53:10.430Z,100.00
2018-11-14T08:55:38.975Z,100.00
2018-11-14T08:58:09.015Z,100.00
2018-11-14T09:00:37.212Z,100.00
2018-11-14T09:03:06.504Z,100.00
2018-11-14T09:05:34.647Z,100.00
2018-11-14T09:08:02.858Z,100.00
2018-11-14T09:10:31.814Z,100.00
2018-11-14T09:13:00.086Z,100.00
2018-11-14T09:15:28.219Z,100.00
2018-11-14T09:17:56.553Z,100.00
2018-11-14T09:20:25.984Z,100.00
2018-11-14T09:22:54.247Z,100.00
2018-11-14T09:25:24.029Z,100.00
2018-11-14T09:27:52.233Z,100.00
2018-11-14T09:30:21.583Z,100.00
2018-11-14T09:32:49.782Z,100.00
2018-11-14T09:35:19.092Z,100.00
2018-11-14T09:37:47.512Z,100.00
2018-11-14T09:40:17.316Z,100.00
2018-11-14T09:42:45.554Z,100.00
2018-11-14T09:45:15.820Z,100.00
2018-11-14T09:47:44.059Z,100.00
2018-11-14T09:50:15.475Z,100.00
2018-11-14T09:52:44.818Z,100.00
2018-11-14T09:55:13.293Z,100.00
2018-11-14T09:57:42.176Z,100.00
2018-11-14T10:00:14.579Z,100.00
2018-11-14T10:02:43.294Z,100.00
2018-11-14T10:05:14.832Z,100.00
2018-11-14T10:07:43.240Z,100.00
2018-11-14T10:10:12.751Z,100.00
2018-11-14T10:12:40.921Z,100.00
2018-11-14T10:15:12.233Z,100.00
2018-11-14T10:17:40.883Z,100.00
2018-11-14T10:20:11.070Z,100.00
2018-11-14T10:22:39.520Z,100.00
2018-11-14T10:25:07.811Z,100.00
2018-11-14T10:27:36.395Z,100.00
2018-11-14T10:30:05.785Z,100.00
2018-11-14T10:32:33.988Z,100.00
2018-11-14T10:35:02.148Z,100.00
2018-11-14T10:37:30.318Z,100.00
2018-11-14T10:39:58.612Z,100.00
2018-11-14T10:42:26.851Z,100.00
2018-11-14T10:44:55.066Z,100.00
2018-11-14T10:47:23.461Z,100.00
2018-11-14T10:49:51.632Z,100.00
2018-11-14T10:52:19.792Z,100.00
2018-11-14T10:54:48.024Z,100.00
2018-11-14T10:57:16.323Z,100.00
2018-11-14T10:59:44.517Z,100.00
2018-11-14T11:02:18.036Z,100.00
2018-11-14T11:04:51.683Z,100.00
2018-11-14T11:07:25.246Z,100.00
2018-11-14T11:09:58.845Z,100.00
2018-11-14T11:12:32.300Z,100.00
2018-11-14T11:15:05.800Z,100.00
2018-11-14T11:17:39.427Z,100.00
2018-11-14T11:20:07.620Z,100.00
2018-11-14T11:22:35.820Z,100.00
2018-11-14T11:25:04.152Z,100.00
2018-11-14T11:27:32.368Z,100.00
2018-11-14T11:30:00.505Z,100.00
2018-11-14T11:32:28.787Z,100.00
2018-11-14T11:34:56.945Z,100.00
2018-11-14T11:37:25.278Z,100.00
2018-11-14T11:39:53.565Z,100.00
2018-11-14T11:42:21.744Z,100.00
2018-11-14T11:44:50.201Z,100.00
2018-11-14T11:47:18.483Z,100.00
2018-11-14T11:49:46.763Z,100.00
2018-11-14T11:52:15.170Z,100.00
2018-11-14T11:54:43.361Z,100.00
2018-11-14T11:57:11.599Z,100.00
2018-11-14T11:59:39.880Z,100.00
2018-11-14T12:02:08.239Z,100.00
2018-11-14T12:04:36.991Z,100.00
2018-11-14T12:07:05.259Z,99.52
2018-11-14T12:09:33.407Z,98.80
2018-11-14T12:12:01.972Z,98.22
2018-11-14T12:14:30.147Z,96.97
2018-11-14T12:16:58.287Z,95.80
2018-11-14T12:19:26.429Z,95.29
2018-11-14T12:21:54.588Z,93.69
2018-11-14T12:24:22.771Z,93.61
2018-11-14T12:26:51.027Z,91.90
2018-11-14T12:29:19.233Z,91.38
2018-11-14T12:31:47.526Z,91.91
2018-11-14T12:34:15.684Z,90.54
2018-11-14T12:36:43.980Z,91.46
2018-11-14T12:39:12.115Z,89.79
2018-11-14T12:41:40.516Z,90.26
2018-11-14T12:44:08.826Z,89.47
2018-11-14T12:46:37.023Z,89.79
2018-11-14T12:49:05.432Z,89.31
2018-11-14T12:51:33.762Z,88.02
2018-11-14T12:54:02.165Z,88.38
2018-11-14T12:56:30.511Z,88.94
2018-11-14T12:58:58.759Z,86.69
2018-11-14T13:01:26.956Z,85.46
2018-11-14T13:03:55.164Z,84.52
2018-11-14T13:06:23.461Z,83.82
2018-11-14T13:08:51.603Z,84.40
2018-11-14T13:11:19.749Z,83.07
2018-11-14T13:13:48.779Z,83.10
2018-11-14T13:16:17.995Z,83.11
2018-11-14T13:18:46.425Z,83.33
2018-11-14T13:21:14.779Z,82.40
2018-11-14T13:23:43.151Z,82.08
2018-11-14T13:26:11.436Z,82.31
2018-11-14T13:28:39.845Z,83.68
2018-11-14T13:31:08.455Z,82.88
2018-11-14T13:33:36.892Z,82.37
2018-11-14T13:36:05.090Z,82.63
2018-11-14T13:38:33.242Z,81.86
2018-11-14T13:41:01.441Z,82.71
2018-11-14T13:43:29.722Z,83.22
2018-11-14T13:45:58.164Z,82.42
2018-11-14T13:48:26.399Z,82.92
2018-11-14T13:50:54.964Z,82.60
2018-11-14T13:53:22.944Z,82.55
2018-11-14T13:55:51.112Z,82.32
2018-11-14T13:58:19.257Z,82.12
2018-11-14T14:00:47.476Z,82.43
2018-11-14T14:03:15.715Z,82.53
2018-11-14T14:05:43.938Z,82.57
2018-11-14T14:08:12.192Z,82.02
2018-11-14T14:10:41.176Z,81.15
2018-11-14T14:13:09.391Z,82.00
2018-11-14T14:15:37.838Z,81.69
2018-11-14T14:18:06.379Z,82.14
2018-11-14T14:20:34.670Z,81.76
2018-11-14T14:23:02.840Z,82.57
2018-11-14T14:25:31.073Z,82.83
2018-11-14T14:27:59.305Z,83.27
2018-11-14T14:30:27.558Z,83.57
2018-11-14T14:32:55.714Z,83.83
2018-11-14T14:35:24.052Z,83.85
2018-11-14T14:37:52.256Z,83.72
2018-11-14T14:40:21.637Z,83.80
2018-11-14T14:42:49.935Z,83.99
2018-11-14T14:45:20.495Z,84.12
2018-11-14T14:47:48.715Z,84.29
2018-11-14T14:50:18.071Z,84.16
2018-11-14T14:52:46.567Z,85.30
2018-11-14T14:55:20.085Z,86.34
2018-11-14T14:57:48.584Z,86.90
2018-11-14T15:00:19.903Z,87.59
2018-11-14T15:02:48.125Z,87.41
2018-11-14T15:05:16.271Z,87.81
2018-11-14T15:07:44.512Z,88.10
2018-11-14T15:10:14.987Z,88.86
2018-11-14T15:12:43.519Z,89.27
2018-11-14T15:15:12.108Z,89.71
2018-11-14T15:17:40.425Z,91.49
2018-11-14T15:20:11.868Z,92.08
2018-11-14T15:22:40.248Z,93.04
2018-11-14T15:25:10.389Z,94.00
2018-11-14T15:27:39.530Z,94.79
2018-11-14T15:30:11.588Z,95.29
2018-11-14T15:32:40.788Z,96.03
2018-11-14T15:35:10.127Z,96.62
2018-11-14T15:37:38.541Z,96.36
2018-11-14T15:40:08.543Z,96.03
2018-11-14T15:42:37.487Z,95.91
2018-11-14T15:45:07.307Z,95.12
2018-11-14T15:47:36.373Z,95.13
2018-11-14T15:50:05.994Z,95.12
2018-11-14T15:52:34.215Z,95.09
2018-11-14T15:55:02.648Z,95.16
2018-11-14T15:57:30.946Z,95.61
2018-11-14T15:59:59.099Z,96.15
2018-11-14T16:02:27.380Z,96.29
2018-11-14T16:04:55.728Z,96.89
2018-11-14T16:07:23.880Z,97.16
2018-11-14T16:09:52.120Z,97.12
2018-11-14T16:12:20.418Z,97.15
2018-11-14T16:14:48.636Z,97.03
2018-11-14T16:17:16.906Z,96.95
2018-11-14T16:19:45.980Z,97.32
2018-11-14T16:22:14.346Z,97.46
2018-11-14T16:24:42.599Z,97.35
2018-11-14T16:27:10.855Z,97.58
2018-11-14T16:29:38.985Z,97.56
2018-11-14T16:32:07.219Z,97.92
2018-11-14T16:34:35.523Z,97.81
2018-11-14T16:37:03.755Z,98.34
2018-11-14T16:39:31.883Z,98.41
2018-11-14T16:42:00.079Z,98.64
2018-11-14T16:44:28.523Z,98.70
2018-11-14T16:46:56.875Z,99.00
2018-11-14T16:49:25.255Z,99.48
2018-11-14T16:51:56.431Z,100.00
2018-11-14T16:54:24.671Z,99.99
2018-11-14T16:56:53.144Z,100.00
2018-11-14T16:59:21.292Z,100.00
2018-11-14T17:01:49.491Z,100.00
2018-11-14T17:04:17.767Z,99.42
2018-11-14T17:06:46.071Z,99.30
2018-11-14T17:09:14.389Z,99.25
2018-11-14T17:11:42.675Z,99.57
2018-11-14T17:14:10.945Z,99.47
2018-11-14T17:16:39.359Z,99.67
2018-11-14T17:19:07.676Z,99.91
2018-11-14T17:21:36.138Z,100.00
2018-11-14T17:24:04.357Z,100.00
2018-11-14T17:26:32.607Z,100.00
2018-11-14T17:29:00.767Z,100.00
2018-11-14T17:31:28.963Z,100.00
2018-11-14T17:33:57.327Z,100.00
2018-11-14T17:36:25.490Z,100.00
2018-11-14T17:38:53.631Z,100.00
2018-11-14T17:41:21.888Z,100.00
2018-11-14T17:43:50.062Z,100.00
2018-11-14T17:46:18.349Z,100.00
2018-11-14T17:48:46.560Z,100.00
2018-11-14T17:51:14.720Z,100.00
2018-11-14T17:53:43.051Z,100.00
2018-11-14T17:56:11.236Z,100.00
2018-11-14T17:58:39.390Z,100.00
2018-11-14T18:01:07.673Z,100.00
2018-11-14T18:03:35.740Z,100.00
2018-11-14T18:06:03.967Z,100.00
2018-11-14T18:08:32.168Z,100.00
2018-11-14T18:11:00.307Z,100.00
2018-11-14T18:13:28.796Z,100.00
2018-11-14T18:15:57.595Z,100.00
2018-11-14T18:18:25.795Z,100.00
2018-11-14T18:20:53.957Z,100.00
2018-11-14T18:23:22.263Z,100.00
2018-11-14T18:25:51.235Z,100.00
2018-11-14T18:28:19.557Z,100.00
2018-11-14T18:30:47.833Z,100.00
2018-11-14T18:33:16.024Z,100.00
2018-11-14T18:35:44.226Z,100.00
2018-11-14T18:38:12.504Z,100.00
2018-11-14T18:40:40.741Z,100.00
2018-11-14T18:43:08.969Z,100.00
2018-11-14T18:45:37.160Z,100.00
2018-11-14T18:48:06.239Z,100.00
2018-11-14T18:50:34.526Z,100.00
2018-11-14T18:53:02.856Z,100.00
2018-11-14T18:55:32.479Z,100.00
2018-11-14T18:58:01.537Z,100.00
2018-11-14T19:00:30.940Z,100.00
2018-11-14T19:02:59.348Z,100.00
2018-11-14T19:05:27.610Z,100.00
2018-11-14T19:07:56.179Z,100.00
2018-11-14T19:10:26.140Z,100.00
2018-11-14T19:12:54.468Z,100.00
2018-11-14T19:15:25.711Z,100.00
2018-11-14T19:17:54.093Z,100.00
2018-11-14T19:20:29.924Z,100.00
2018-11-14T19:22:58.967Z,100.00
2018-11-14T19:25:30.529Z,100.00
2018-11-14T19:27:58.795Z,100.00
2018-11-14T19:30:28.687Z,100.00
2018-11-14T19:32:57.554Z,100.00
2018-11-14T19:35:25.890Z,100.00
2018-11-14T19:37:55.324Z,100.00
2018-11-14T19:40:24.860Z,100.00
2018-11-14T19:42:54.644Z,100.00
2018-11-14T19:45:24.340Z,100.00
2018-11-14T19:47:52.793Z,100.00
2018-11-14T19:50:21.872Z,100.00
2018-11-14T19:52:50.397Z,100.00
2018-11-14T19:55:19.738Z,100.00
2018-11-14T19:57:48.907Z,100.00
2018-11-14T20:00:19.683Z,100.00
2018-11-14T20:02:47.824Z,100.00
2018-11-14T20:05:16.912Z,100.00
2018-11-14T20:07:45.099Z,100.00
2018-11-14T20:10:15.066Z,100.00
2018-11-14T20:12:43.471Z,100.00
2018-11-14T20:15:12.779Z,100.00
2018-11-14T20:17:42.154Z,100.00
2018-11-14T20:20:12.569Z,100.00
2018-11-14T20:22:40.927Z,100.00
2018-11-14T20:25:09.209Z,100.00
2018-11-14T20:27:38.848Z,100.00
2018-11-14T20:30:10.636Z,100.00
2018-11-14T20:32:38.871Z,100.00
2018-11-14T20:35:08.054Z,100.00
2018-11-14T20:37:36.384Z,100.00
2018-11-14T20:40:05.053Z,100.00
2018-11-14T20:42:33.297Z,100.00
2018-11-14T20:45:01.471Z,100.00
2018-11-14T20:47:29.724Z,100.00
2018-11-14T20:49:57.944Z,100.00
2018-11-14T20:52:26.170Z,100.00
2018-11-14T20:54:57.241Z,100.00
2018-11-14T20:57:25.748Z,100.00
2018-11-14T20:59:54.243Z,100.00
2018-11-14T21:02:22.505Z,100.00
2018-11-14T21:04:50.669Z,100.00
2018-11-14T21:07:18.844Z,100.00
2018-11-14T21:09:47.251Z,100.00
2018-11-14T21:12:15.339Z,100.00
2018-11-14T21:14:43.478Z,100.00
2018-11-14T21:17:11.657Z,100.00
2018-11-14T21:19:39.903Z,100.00
2018-11-14T21:22:11.723Z,100.00
2018-11-14T21:24:39.944Z,100.00
2018-11-14T21:27:08.299Z,100.00
2018-11-14T21:29:36.501Z,100.00
2018-11-14T21:32:05.500Z,100.00
2018-11-14T21:34:33.756Z,100.00
2018-11-14T21:37:02.261Z,100.00
2018-11-14T21:39:30.447Z,100.00
2018-11-14T21:41:59.353Z,100.00
2018-11-14T21:44:27.499Z,100.00
2018-11-14T21:46:55.672Z,100.00
2018-11-14T21:49:27.014Z,100.00
2018-11-14T21:51:56.586Z,100.00
2018-11-14T21:54:25.511Z,100.00
2018-11-14T21:56:54.084Z,100.00
2018-11-14T22:02:37.482Z,100.00
2018-11-14T22:05:06.504Z,100.00
2018-11-14T22:07:34.894Z,100.00
2018-11-14T22:10:03.053Z,100.00
2018-11-14T22:12:31.258Z,100.00
2018-11-14T22:14:59.788Z,100.00
2018-11-14T22:17:28.038Z,100.00
2018-11-14T22:19:56.295Z,100.00
2018-11-14T22:22:24.915Z,100.00
2018-11-14T22:24:53.159Z,100.00
2018-11-14T22:27:21.742Z,100.00
2018-11-14T22:29:50.136Z,100.00
2018-11-14T22:32:18.668Z,100.00
2018-11-14T22:34:46.943Z,100.00
2018-11-14T22:37:15.357Z,100.00
2018-11-14T22:39:43.720Z,100.00
2018-11-14T22:42:11.908Z,100.00
2018-11-14T22:44:40.233Z,100.00
2018-11-14T22:47:08.421Z,100.00
2018-11-14T22:49:36.592Z,100.00
2018-11-14T22:52:05.181Z,100.00
2018-11-14T22:54:33.636Z,100.00
2018-11-14T22:57:01.944Z,100.00
2018-11-14T22:59:30.760Z,100.00
2018-11-14T23:01:59.005Z,100.00
2018-11-14T23:04:27.223Z,100.00
2018-11-14T23:06:55.371Z,100.00
2018-11-14T23:09:23.840Z,100.00
2018-11-14T23:11:52.087Z,100.00
2018-11-14T23:14:20.278Z,100.00
2018-11-14T23:16:48.526Z,100.00
2018-11-14T23:19:16.730Z,100.00
2018-11-14T23:21:44.862Z,100.00
2018-11-14T23:24:13.129Z,100.00
2018-11-14T23:26:41.395Z,100.00
2018-11-14T23:29:09.677Z,100.00
2018-11-14T23:31:38.232Z,100.00
2018-11-14T23:34:06.468Z,100.00
2018-11-14T23:36:34.756Z,100.00
2018-11-14T23:39:03.220Z,100.00
2018-11-14T23:41:31.853Z,100.00
2018-11-14T23:44:00.029Z,100.00
2018-11-14T23:46:28.559Z,100.00
2018-11-14T23:48:56.719Z,100.00
2018-11-14T23:51:25.200Z,100.00
2018-11-14T23:53:53.380Z,100.00
2018-11-14T23:56:21.611Z,100.00
2018-11-14T23:58:49.796Z,100.00
